sensor_id;sensor_type;location;lat;lon;timestamp;P1;durP1;ratioP1;P2;durP2;ratioP2
60336;SDS011;46978;50.288;28.624;2022-11-13T00:00:57;11.26;;;5.10;;
60336;SDS011;46978;50.288;28.624;2022-11-13T00:02:00;9.86;;;4.96;;
60336;SDS011;46978;50.288;28.624;2022-11-13T00:03:02;11.40;;;4.86;;
60336;SDS011;46978;50.288;28.624;2022-11-13T00:04:04;10.35;;;4.43;;
60336;SDS011;46978;50.288;28.624;2022-11-13T00:05:06;10.25;;;4.71;;
60336;SDS011;46978;50.288;28.624;2022-11-13T00:06:09;10.99;;;4.54;;
60336;SDS011;46978;50.288;28.624;2022-11-13T00:07:11;6.98;;;3.11;;
60336;SDS011;46978;50.288;28.624;2022-11-13T00:08:13;9.92;;;4.07;;
60336;SDS011;46978;50.288;28.624;2022-11-13T00:09:15;8.76;;;4.35;;
60336;SDS011;46978;50.288;28.624;2022-11-13T00:10:17;8.92;;;4.19;;
60336;SDS011;46978;50.288;28.624;2022-11-13T00:11:19;13.32;;;5.61;;
60336;SDS011;46978;50.288;28.624;2022-11-13T00:12:21;8.53;;;4.34;;
60336;SDS011;46978;50.288;28.624;2022-11-13T00:13:23;9.94;;;4.35;;
60336;SDS011;46978;50.288;28.624;2022-11-13T00:14:24;9.41;;;4.07;;
60336;SDS011;46978;50.288;28.624;2022-11-13T00:15:26;9.11;;;4.56;;
60336;SDS011;46978;50.288;28.624;2022-11-13T00:16:28;11.61;;;5.33;;
60336;SDS011;46978;50.288;28.624;2022-11-13T00:17:30;14.26;;;5.06;;
60336;SDS011;46978;50.288;28.624;2022-11-13T00:18:33;9.37;;;4.06;;
60336;SDS011;46978;50.288;28.624;2022-11-13T00:19:35;9.45;;;3.95;;
60336;SDS011;46978;50.288;28.624;2022-11-13T00:20:37;8.39;;;4.00;;
60336;SDS011;46978;50.288;28.624;2022-11-13T00:21:42;7.99;;;3.69;;
60336;SDS011;46978;50.288;28.624;2022-11-13T00:22:50;9.72;;;4.17;;
60336;SDS011;46978;50.288;28.624;2022-11-13T00:23:52;8.76;;;4.06;;
60336;SDS011;46978;50.288;28.624;2022-11-13T00:24:55;9.89;;;4.12;;
60336;SDS011;46978;50.288;28.624;2022-11-13T00:26:01;9.93;;;4.00;;
60336;SDS011;46978;50.288;28.624;2022-11-13T00:27:04;9.01;;;3.98;;
60336;SDS011;46978;50.288;28.624;2022-11-13T00:28:06;8.47;;;4.39;;
60336;SDS011;46978;50.288;28.624;2022-11-13T00:29:07;22.62;;;7.08;;
60336;SDS011;46978;50.288;28.624;2022-11-13T00:30:10;7.55;;;3.98;;
60336;SDS011;46978;50.288;28.624;2022-11-13T00:31:13;10.87;;;4.33;;
60336;SDS011;46978;50.288;28.624;2022-11-13T00:32:15;14.58;;;5.62;;
60336;SDS011;46978;50.288;28.624;2022-11-13T00:33:17;13.65;;;5.96;;
60336;SDS011;46978;50.288;28.624;2022-11-13T00:34:19;12.34;;;5.28;;
60336;SDS011;46978;50.288;28.624;2022-11-13T00:35:21;14.67;;;5.49;;
60336;SDS011;46978;50.288;28.624;2022-11-13T00:36:23;12.53;;;5.19;;
60336;SDS011;46978;50.288;28.624;2022-11-13T00:37:26;14.44;;;5.09;;
60336;SDS011;46978;50.288;28.624;2022-11-13T00:38:28;17.16;;;6.49;;
60336;SDS011;46978;50.288;28.624;2022-11-13T00:39:30;19.09;;;7.36;;
60336;SDS011;46978;50.288;28.624;2022-11-13T00:40:32;30.78;;;11.01;;
60336;SDS011;46978;50.288;28.624;2022-11-13T00:41:33;25.73;;;9.40;;
60336;SDS011;46978;50.288;28.624;2022-11-13T00:42:35;25.71;;;10.25;;
60336;SDS011;46978;50.288;28.624;2022-11-13T00:43:37;17.00;;;7.13;;
60336;SDS011;46978;50.288;28.624;2022-11-13T00:44:39;20.43;;;9.15;;
60336;SDS011;46978;50.288;28.624;2022-11-13T00:45:41;15.52;;;7.51;;
60336;SDS011;46978;50.288;28.624;2022-11-13T00:46:43;12.99;;;5.71;;
60336;SDS011;46978;50.288;28.624;2022-11-13T00:47:45;15.55;;;5.89;;
60336;SDS011;46978;50.288;28.624;2022-11-13T00:48:46;18.46;;;7.07;;
60336;SDS011;46978;50.288;28.624;2022-11-13T00:49:48;15.65;;;6.85;;
60336;SDS011;46978;50.288;28.624;2022-11-13T00:50:50;16.01;;;6.71;;
60336;SDS011;46978;50.288;28.624;2022-11-13T00:51:52;15.37;;;6.83;;
60336;SDS011;46978;50.288;28.624;2022-11-13T00:52:54;13.92;;;7.08;;
60336;SDS011;46978;50.288;28.624;2022-11-13T00:53:56;15.33;;;7.45;;
60336;SDS011;46978;50.288;28.624;2022-11-13T00:54:58;13.04;;;6.27;;
60336;SDS011;46978;50.288;28.624;2022-11-13T00:55:59;10.29;;;5.33;;
60336;SDS011;46978;50.288;28.624;2022-11-13T00:57:01;14.56;;;6.53;;
60336;SDS011;46978;50.288;28.624;2022-11-13T00:58:03;12.76;;;5.95;;
60336;SDS011;46978;50.288;28.624;2022-11-13T00:59:05;16.67;;;7.99;;
60336;SDS011;46978;50.288;28.624;2022-11-13T01:00:08;11.31;;;5.70;;
60336;SDS011;46978;50.288;28.624;2022-11-13T01:01:11;8.59;;;5.03;;
60336;SDS011;46978;50.288;28.624;2022-11-13T01:02:15;11.67;;;5.31;;
60336;SDS011;46978;50.288;28.624;2022-11-13T01:03:17;13.26;;;6.59;;
60336;SDS011;46978;50.288;28.624;2022-11-13T01:04:19;10.97;;;5.67;;
60336;SDS011;46978;50.288;28.624;2022-11-13T01:05:21;11.31;;;5.08;;
60336;SDS011;46978;50.288;28.624;2022-11-13T01:06:24;9.84;;;4.89;;
60336;SDS011;46978;50.288;28.624;2022-11-13T01:07:27;13.97;;;5.84;;
60336;SDS011;46978;50.288;28.624;2022-11-13T01:08:29;11.65;;;5.79;;
60336;SDS011;46978;50.288;28.624;2022-11-13T01:09:31;10.54;;;4.94;;
60336;SDS011;46978;50.288;28.624;2022-11-13T01:10:33;9.06;;;5.04;;
60336;SDS011;46978;50.288;28.624;2022-11-13T01:11:38;12.33;;;5.49;;
60336;SDS011;46978;50.288;28.624;2022-11-13T01:12:42;9.12;;;4.06;;
60336;SDS011;46978;50.288;28.624;2022-11-13T01:13:44;12.94;;;5.83;;
60336;SDS011;46978;50.288;28.624;2022-11-13T01:14:48;9.64;;;4.19;;
60336;SDS011;46978;50.288;28.624;2022-11-13T01:15:49;12.27;;;5.92;;
60336;SDS011;46978;50.288;28.624;2022-11-13T01:16:51;8.91;;;4.05;;
60336;SDS011;46978;50.288;28.624;2022-11-13T01:17:53;10.56;;;4.61;;
60336;SDS011;46978;50.288;28.624;2022-11-13T01:18:55;12.15;;;4.44;;
60336;SDS011;46978;50.288;28.624;2022-11-13T01:19:57;9.53;;;4.51;;
60336;SDS011;46978;50.288;28.624;2022-11-13T01:21:03;9.22;;;4.39;;
60336;SDS011;46978;50.288;28.624;2022-11-13T01:22:07;13.89;;;4.85;;
60336;SDS011;46978;50.288;28.624;2022-11-13T01:23:08;10.33;;;4.33;;
60336;SDS011;46978;50.288;28.624;2022-11-13T01:24:10;8.43;;;4.48;;
60336;SDS011;46978;50.288;28.624;2022-11-13T01:25:12;12.99;;;5.42;;
60336;SDS011;46978;50.288;28.624;2022-11-13T01:26:15;8.41;;;4.31;;
60336;SDS011;46978;50.288;28.624;2022-11-13T01:27:28;6.98;;;3.44;;
60336;SDS011;46978;50.288;28.624;2022-11-13T01:28:30;9.23;;;4.27;;
60336;SDS011;46978;50.288;28.624;2022-11-13T01:29:31;7.67;;;3.92;;
60336;SDS011;46978;50.288;28.624;2022-11-13T01:30:33;9.03;;;4.37;;
60336;SDS011;46978;50.288;28.624;2022-11-13T01:31:35;10.74;;;4.26;;
60336;SDS011;46978;50.288;28.624;2022-11-13T01:32:37;9.33;;;4.37;;
60336;SDS011;46978;50.288;28.624;2022-11-13T01:33:38;7.21;;;3.91;;
60336;SDS011;46978;50.288;28.624;2022-11-13T01:34:41;8.23;;;3.81;;
60336;SDS011;46978;50.288;28.624;2022-11-13T01:35:42;10.60;;;4.63;;
60336;SDS011;46978;50.288;28.624;2022-11-13T01:36:44;7.58;;;4.15;;
60336;SDS011;46978;50.288;28.624;2022-11-13T01:37:46;9.77;;;4.14;;
60336;SDS011;46978;50.288;28.624;2022-11-13T01:38:48;10.20;;;4.74;;
60336;SDS011;46978;50.288;28.624;2022-11-13T01:39:50;8.95;;;4.42;;
60336;SDS011;46978;50.288;28.624;2022-11-13T01:40:52;8.88;;;4.43;;
60336;SDS011;46978;50.288;28.624;2022-11-13T01:41:54;9.64;;;4.33;;
60336;SDS011;46978;50.288;28.624;2022-11-13T01:42:56;7.32;;;3.87;;
60336;SDS011;46978;50.288;28.624;2022-11-13T01:43:58;9.29;;;4.23;;
60336;SDS011;46978;50.288;28.624;2022-11-13T01:45:01;12.02;;;4.85;;
60336;SDS011;46978;50.288;28.624;2022-11-13T01:46:08;8.53;;;4.12;;
60336;SDS011;46978;50.288;28.624;2022-11-13T01:47:23;6.89;;;3.97;;
60336;SDS011;46978;50.288;28.624;2022-11-13T01:48:39;9.31;;;4.05;;
60336;SDS011;46978;50.288;28.624;2022-11-13T01:49:44;10.09;;;4.94;;
60336;SDS011;46978;50.288;28.624;2022-11-13T01:50:47;8.32;;;4.03;;
60336;SDS011;46978;50.288;28.624;2022-11-13T01:52:57;7.59;;;4.19;;
60336;SDS011;46978;50.288;28.624;2022-11-13T01:54:00;8.11;;;3.93;;
60336;SDS011;46978;50.288;28.624;2022-11-13T01:55:09;8.28;;;4.11;;
60336;SDS011;46978;50.288;28.624;2022-11-13T01:56:10;7.17;;;3.88;;
60336;SDS011;46978;50.288;28.624;2022-11-13T01:57:14;8.41;;;4.13;;
60336;SDS011;46978;50.288;28.624;2022-11-13T01:58:17;7.59;;;4.16;;
60336;SDS011;46978;50.288;28.624;2022-11-13T01:59:22;8.00;;;3.94;;
60336;SDS011;46978;50.288;28.624;2022-11-13T02:00:26;8.12;;;3.60;;
60336;SDS011;46978;50.288;28.624;2022-11-13T02:01:28;7.63;;;3.92;;
60336;SDS011;46978;50.288;28.624;2022-11-13T02:02:30;7.01;;;3.73;;
60336;SDS011;46978;50.288;28.624;2022-11-13T02:03:32;6.81;;;3.64;;
60336;SDS011;46978;50.288;28.624;2022-11-13T02:04:34;6.97;;;3.25;;
60336;SDS011;46978;50.288;28.624;2022-11-13T02:05:36;8.80;;;4.42;;
60336;SDS011;46978;50.288;28.624;2022-11-13T02:06:39;8.57;;;3.89;;
60336;SDS011;46978;50.288;28.624;2022-11-13T02:07:46;9.46;;;3.61;;
60336;SDS011;46978;50.288;28.624;2022-11-13T02:08:49;7.37;;;3.58;;
60336;SDS011;46978;50.288;28.624;2022-11-13T02:09:52;6.45;;;3.31;;
60336;SDS011;46978;50.288;28.624;2022-11-13T02:10:56;6.98;;;3.56;;
60336;SDS011;46978;50.288;28.624;2022-11-13T02:11:58;6.96;;;3.69;;
60336;SDS011;46978;50.288;28.624;2022-11-13T02:13:00;6.94;;;3.67;;
60336;SDS011;46978;50.288;28.624;2022-11-13T02:14:19;7.21;;;3.41;;
60336;SDS011;46978;50.288;28.624;2022-11-13T02:15:43;5.92;;;3.39;;
60336;SDS011;46978;50.288;28.624;2022-11-13T02:16:47;8.61;;;3.39;;
60336;SDS011;46978;50.288;28.624;2022-11-13T02:17:56;6.25;;;3.51;;
60336;SDS011;46978;50.288;28.624;2022-11-13T02:19:00;7.72;;;3.72;;
60336;SDS011;46978;50.288;28.624;2022-11-13T02:20:06;7.89;;;4.01;;
60336;SDS011;46978;50.288;28.624;2022-11-13T02:22:29;8.89;;;3.77;;
60336;SDS011;46978;50.288;28.624;2022-11-13T02:24:46;8.47;;;3.52;;
60336;SDS011;46978;50.288;28.624;2022-11-13T02:25:49;6.36;;;3.25;;
60336;SDS011;46978;50.288;28.624;2022-11-13T02:26:53;7.87;;;3.61;;
60336;SDS011;46978;50.288;28.624;2022-11-13T02:27:58;6.37;;;3.12;;
60336;SDS011;46978;50.288;28.624;2022-11-13T02:29:00;6.16;;;3.39;;
60336;SDS011;46978;50.288;28.624;2022-11-13T02:31:22;8.72;;;3.51;;
60336;SDS011;46978;50.288;28.624;2022-11-13T02:32:24;5.97;;;3.39;;
60336;SDS011;46978;50.288;28.624;2022-11-13T02:33:27;5.87;;;3.31;;
60336;SDS011;46978;50.288;28.624;2022-11-13T02:34:30;6.08;;;3.27;;
60336;SDS011;46978;50.288;28.624;2022-11-13T02:35:34;6.05;;;2.82;;
60336;SDS011;46978;50.288;28.624;2022-11-13T02:36:37;6.38;;;3.30;;
60336;SDS011;46978;50.288;28.624;2022-11-13T02:37:39;6.48;;;3.05;;
60336;SDS011;46978;50.288;28.624;2022-11-13T02:38:41;7.01;;;3.42;;
60336;SDS011;46978;50.288;28.624;2022-11-13T02:39:43;6.46;;;3.41;;
60336;SDS011;46978;50.288;28.624;2022-11-13T02:40:45;6.60;;;2.99;;
60336;SDS011;46978;50.288;28.624;2022-11-13T02:41:47;7.81;;;3.28;;
60336;SDS011;46978;50.288;28.624;2022-11-13T02:42:49;6.59;;;2.96;;
60336;SDS011;46978;50.288;28.624;2022-11-13T02:43:51;6.87;;;3.38;;
60336;SDS011;46978;50.288;28.624;2022-11-13T02:44:53;7.83;;;3.39;;
60336;SDS011;46978;50.288;28.624;2022-11-13T02:45:54;5.90;;;3.20;;
60336;SDS011;46978;50.288;28.624;2022-11-13T02:46:56;6.67;;;3.02;;
60336;SDS011;46978;50.288;28.624;2022-11-13T02:47:59;5.92;;;2.96;;
60336;SDS011;46978;50.288;28.624;2022-11-13T02:49:01;6.56;;;3.09;;
60336;SDS011;46978;50.288;28.624;2022-11-13T02:50:03;7.47;;;3.18;;
60336;SDS011;46978;50.288;28.624;2022-11-13T02:51:06;6.11;;;3.12;;
60336;SDS011;46978;50.288;28.624;2022-11-13T02:52:08;7.36;;;3.36;;
60336;SDS011;46978;50.288;28.624;2022-11-13T02:53:09;6.03;;;3.26;;
60336;SDS011;46978;50.288;28.624;2022-11-13T02:54:11;6.68;;;2.91;;
60336;SDS011;46978;50.288;28.624;2022-11-13T02:55:13;5.55;;;2.59;;
60336;SDS011;46978;50.288;28.624;2022-11-13T02:56:15;6.08;;;2.69;;
60336;SDS011;46978;50.288;28.624;2022-11-13T02:57:17;7.61;;;2.61;;
60336;SDS011;46978;50.288;28.624;2022-11-13T02:58:19;5.93;;;2.77;;
60336;SDS011;46978;50.288;28.624;2022-11-13T02:59:21;6.73;;;2.90;;
60336;SDS011;46978;50.288;28.624;2022-11-13T03:00:22;6.97;;;3.28;;
60336;SDS011;46978;50.288;28.624;2022-11-13T03:01:25;6.01;;;2.91;;
60336;SDS011;46978;50.288;28.624;2022-11-13T03:02:27;7.10;;;3.15;;
60336;SDS011;46978;50.288;28.624;2022-11-13T03:03:29;9.31;;;4.06;;
60336;SDS011;46978;50.288;28.624;2022-11-13T03:04:30;8.11;;;3.42;;
60336;SDS011;46978;50.288;28.624;2022-11-13T03:05:32;8.20;;;3.66;;
60336;SDS011;46978;50.288;28.624;2022-11-13T03:06:34;6.31;;;3.06;;
60336;SDS011;46978;50.288;28.624;2022-11-13T03:07:36;6.44;;;3.30;;
60336;SDS011;46978;50.288;28.624;2022-11-13T03:08:37;6.14;;;3.17;;
60336;SDS011;46978;50.288;28.624;2022-11-13T03:09:39;6.05;;;2.99;;
60336;SDS011;46978;50.288;28.624;2022-11-13T03:10:41;4.97;;;2.67;;
60336;SDS011;46978;50.288;28.624;2022-11-13T03:11:43;6.06;;;2.59;;
60336;SDS011;46978;50.288;28.624;2022-11-13T03:12:45;6.58;;;2.45;;
60336;SDS011;46978;50.288;28.624;2022-11-13T03:13:47;5.11;;;2.68;;
60336;SDS011;46978;50.288;28.624;2022-11-13T03:14:48;5.12;;;2.43;;
60336;SDS011;46978;50.288;28.624;2022-11-13T03:15:50;5.66;;;2.53;;
60336;SDS011;46978;50.288;28.624;2022-11-13T03:16:52;4.82;;;2.58;;
60336;SDS011;46978;50.288;28.624;2022-11-13T03:17:54;5.41;;;2.44;;
60336;SDS011;46978;50.288;28.624;2022-11-13T03:18:56;4.64;;;2.37;;
60336;SDS011;46978;50.288;28.624;2022-11-13T03:19:58;6.12;;;2.37;;
60336;SDS011;46978;50.288;28.624;2022-11-13T03:21:04;5.32;;;2.25;;
60336;SDS011;46978;50.288;28.624;2022-11-13T03:22:07;4.58;;;2.47;;
60336;SDS011;46978;50.288;28.624;2022-11-13T03:23:09;6.01;;;2.67;;
60336;SDS011;46978;50.288;28.624;2022-11-13T03:24:10;5.29;;;2.41;;
60336;SDS011;46978;50.288;28.624;2022-11-13T03:25:12;5.49;;;2.50;;
60336;SDS011;46978;50.288;28.624;2022-11-13T03:26:15;5.95;;;2.39;;
60336;SDS011;46978;50.288;28.624;2022-11-13T03:27:18;5.12;;;2.25;;
60336;SDS011;46978;50.288;28.624;2022-11-13T03:28:19;5.31;;;2.68;;
60336;SDS011;46978;50.288;28.624;2022-11-13T03:29:21;6.31;;;2.40;;
60336;SDS011;46978;50.288;28.624;2022-11-13T03:30:23;5.31;;;2.31;;
60336;SDS011;46978;50.288;28.624;2022-11-13T03:31:25;4.79;;;2.16;;
60336;SDS011;46978;50.288;28.624;2022-11-13T03:32:27;4.73;;;2.15;;
60336;SDS011;46978;50.288;28.624;2022-11-13T03:33:29;5.41;;;2.45;;
60336;SDS011;46978;50.288;28.624;2022-11-13T03:34:31;8.33;;;2.95;;
60336;SDS011;46978;50.288;28.624;2022-11-13T03:35:33;5.49;;;2.37;;
60336;SDS011;46978;50.288;28.624;2022-11-13T03:36:34;4.72;;;2.23;;
60336;SDS011;46978;50.288;28.624;2022-11-13T03:37:36;4.61;;;2.23;;
60336;SDS011;46978;50.288;28.624;2022-11-13T03:38:38;5.52;;;1.98;;
60336;SDS011;46978;50.288;28.624;2022-11-13T03:39:40;4.46;;;2.03;;
60336;SDS011;46978;50.288;28.624;2022-11-13T03:40:42;5.05;;;2.35;;
60336;SDS011;46978;50.288;28.624;2022-11-13T03:41:43;5.17;;;2.37;;
60336;SDS011;46978;50.288;28.624;2022-11-13T03:42:45;5.15;;;2.37;;
60336;SDS011;46978;50.288;28.624;2022-11-13T03:43:47;4.65;;;2.13;;
60336;SDS011;46978;50.288;28.624;2022-11-13T03:44:49;5.94;;;2.16;;
60336;SDS011;46978;50.288;28.624;2022-11-13T03:45:51;4.52;;;2.41;;
60336;SDS011;46978;50.288;28.624;2022-11-13T03:46:52;4.91;;;2.27;;
60336;SDS011;46978;50.288;28.624;2022-11-13T03:47:54;4.47;;;2.53;;
60336;SDS011;46978;50.288;28.624;2022-11-13T03:48:56;4.09;;;2.09;;
60336;SDS011;46978;50.288;28.624;2022-11-13T03:49:57;5.26;;;2.47;;
60336;SDS011;46978;50.288;28.624;2022-11-13T03:50:59;4.15;;;2.25;;
60336;SDS011;46978;50.288;28.624;2022-11-13T03:52:01;3.63;;;1.81;;
60336;SDS011;46978;50.288;28.624;2022-11-13T03:53:03;3.88;;;1.80;;
60336;SDS011;46978;50.288;28.624;2022-11-13T03:54:05;4.26;;;1.91;;
60336;SDS011;46978;50.288;28.624;2022-11-13T03:55:07;3.93;;;1.93;;
60336;SDS011;46978;50.288;28.624;2022-11-13T03:56:10;6.42;;;2.19;;
60336;SDS011;46978;50.288;28.624;2022-11-13T03:57:12;5.08;;;2.37;;
60336;SDS011;46978;50.288;28.624;2022-11-13T03:58:13;4.46;;;1.94;;
60336;SDS011;46978;50.288;28.624;2022-11-13T03:59:15;4.57;;;2.45;;
60336;SDS011;46978;50.288;28.624;2022-11-13T04:00:17;4.63;;;2.23;;
60336;SDS011;46978;50.288;28.624;2022-11-13T04:01:20;6.14;;;2.44;;
60336;SDS011;46978;50.288;28.624;2022-11-13T04:02:22;5.38;;;2.17;;
60336;SDS011;46978;50.288;28.624;2022-11-13T04:03:23;4.23;;;1.90;;
60336;SDS011;46978;50.288;28.624;2022-11-13T04:04:25;3.86;;;2.14;;
60336;SDS011;46978;50.288;28.624;2022-11-13T04:05:27;4.52;;;2.29;;
60336;SDS011;46978;50.288;28.624;2022-11-13T04:06:29;6.66;;;2.62;;
60336;SDS011;46978;50.288;28.624;2022-11-13T04:07:31;3.56;;;1.85;;
60336;SDS011;46978;50.288;28.624;2022-11-13T04:08:32;3.97;;;1.89;;
60336;SDS011;46978;50.288;28.624;2022-11-13T04:09:34;4.31;;;1.82;;
60336;SDS011;46978;50.288;28.624;2022-11-13T04:10:36;5.14;;;2.22;;
60336;SDS011;46978;50.288;28.624;2022-11-13T04:11:38;4.64;;;2.42;;
60336;SDS011;46978;50.288;28.624;2022-11-13T04:12:39;5.13;;;2.54;;
60336;SDS011;46978;50.288;28.624;2022-11-13T04:13:41;6.46;;;2.93;;
60336;SDS011;46978;50.288;28.624;2022-11-13T04:14:43;4.63;;;2.40;;
60336;SDS011;46978;50.288;28.624;2022-11-13T04:15:45;5.54;;;2.89;;
60336;SDS011;46978;50.288;28.624;2022-11-13T04:16:47;4.86;;;2.86;;
60336;SDS011;46978;50.288;28.624;2022-11-13T04:17:49;3.87;;;2.01;;
60336;SDS011;46978;50.288;28.624;2022-11-13T04:18:51;3.98;;;2.07;;
60336;SDS011;46978;50.288;28.624;2022-11-13T04:19:53;3.72;;;1.73;;
60336;SDS011;46978;50.288;28.624;2022-11-13T04:21:02;3.87;;;1.91;;
60336;SDS011;46978;50.288;28.624;2022-11-13T04:22:05;3.86;;;1.91;;
60336;SDS011;46978;50.288;28.624;2022-11-13T04:23:07;4.62;;;2.14;;
60336;SDS011;46978;50.288;28.624;2022-11-13T04:24:09;4.45;;;1.84;;
60336;SDS011;46978;50.288;28.624;2022-11-13T04:25:10;5.39;;;2.52;;
60336;SDS011;46978;50.288;28.624;2022-11-13T04:26:13;5.33;;;2.68;;
60336;SDS011;46978;50.288;28.624;2022-11-13T04:27:15;5.66;;;2.29;;
60336;SDS011;46978;50.288;28.624;2022-11-13T04:28:16;4.50;;;2.14;;
60336;SDS011;46978;50.288;28.624;2022-11-13T04:29:18;4.13;;;1.91;;
60336;SDS011;46978;50.288;28.624;2022-11-13T04:30:20;4.17;;;2.04;;
60336;SDS011;46978;50.288;28.624;2022-11-13T04:31:22;3.87;;;1.78;;
60336;SDS011;46978;50.288;28.624;2022-11-13T04:32:24;3.54;;;1.73;;
60336;SDS011;46978;50.288;28.624;2022-11-13T04:33:25;4.33;;;1.97;;
60336;SDS011;46978;50.288;28.624;2022-11-13T04:34:27;4.11;;;1.86;;
60336;SDS011;46978;50.288;28.624;2022-11-13T04:35:29;4.93;;;2.16;;
60336;SDS011;46978;50.288;28.624;2022-11-13T04:36:31;4.31;;;1.97;;
60336;SDS011;46978;50.288;28.624;2022-11-13T04:37:32;3.52;;;1.85;;
60336;SDS011;46978;50.288;28.624;2022-11-13T04:38:34;3.29;;;1.69;;
60336;SDS011;46978;50.288;28.624;2022-11-13T04:39:36;3.77;;;1.89;;
60336;SDS011;46978;50.288;28.624;2022-11-13T04:40:38;5.29;;;2.37;;
60336;SDS011;46978;50.288;28.624;2022-11-13T04:41:40;4.55;;;2.49;;
60336;SDS011;46978;50.288;28.624;2022-11-13T04:42:42;3.91;;;2.03;;
60336;SDS011;46978;50.288;28.624;2022-11-13T04:43:44;4.63;;;2.23;;
60336;SDS011;46978;50.288;28.624;2022-11-13T04:44:46;4.37;;;2.04;;
60336;SDS011;46978;50.288;28.624;2022-11-13T04:45:50;5.63;;;2.75;;
60336;SDS011;46978;50.288;28.624;2022-11-13T04:46:52;6.17;;;2.94;;
60336;SDS011;46978;50.288;28.624;2022-11-13T04:47:54;6.55;;;2.97;;
60336;SDS011;46978;50.288;28.624;2022-11-13T04:48:56;7.19;;;3.59;;
60336;SDS011;46978;50.288;28.624;2022-11-13T04:49:58;7.08;;;2.96;;
60336;SDS011;46978;50.288;28.624;2022-11-13T04:51:00;5.64;;;2.88;;
60336;SDS011;46978;50.288;28.624;2022-11-13T04:52:01;5.53;;;2.56;;
60336;SDS011;46978;50.288;28.624;2022-11-13T04:53:03;5.32;;;2.69;;
60336;SDS011;46978;50.288;28.624;2022-11-13T04:54:05;6.31;;;3.12;;
60336;SDS011;46978;50.288;28.624;2022-11-13T04:55:07;8.71;;;4.65;;
60336;SDS011;46978;50.288;28.624;2022-11-13T04:56:10;8.10;;;4.67;;
60336;SDS011;46978;50.288;28.624;2022-11-13T04:57:12;8.63;;;4.67;;
60336;SDS011;46978;50.288;28.624;2022-11-13T04:58:14;9.99;;;4.56;;
60336;SDS011;46978;50.288;28.624;2022-11-13T04:59:16;10.29;;;3.91;;
60336;SDS011;46978;50.288;28.624;2022-11-13T05:00:18;9.08;;;4.63;;
60336;SDS011;46978;50.288;28.624;2022-11-13T05:01:20;7.83;;;4.10;;
60336;SDS011;46978;50.288;28.624;2022-11-13T05:02:22;8.53;;;3.94;;
60336;SDS011;46978;50.288;28.624;2022-11-13T05:03:24;6.53;;;3.49;;
60336;SDS011;46978;50.288;28.624;2022-11-13T05:04:25;6.82;;;3.63;;
60336;SDS011;46978;50.288;28.624;2022-11-13T05:05:27;9.04;;;4.41;;
60336;SDS011;46978;50.288;28.624;2022-11-13T05:06:28;7.12;;;4.05;;
60336;SDS011;46978;50.288;28.624;2022-11-13T05:07:30;8.63;;;3.08;;
60336;SDS011;46978;50.288;28.624;2022-11-13T05:08:32;7.35;;;3.31;;
60336;SDS011;46978;50.288;28.624;2022-11-13T05:09:34;6.55;;;2.75;;
60336;SDS011;46978;50.288;28.624;2022-11-13T05:10:36;5.05;;;2.63;;
60336;SDS011;46978;50.288;28.624;2022-11-13T05:11:38;6.79;;;3.19;;
60336;SDS011;46978;50.288;28.624;2022-11-13T05:12:40;7.46;;;3.45;;
60336;SDS011;46978;50.288;28.624;2022-11-13T05:13:41;6.16;;;3.24;;
60336;SDS011;46978;50.288;28.624;2022-11-13T05:14:43;8.99;;;3.17;;
60336;SDS011;46978;50.288;28.624;2022-11-13T05:15:45;7.37;;;3.84;;
60336;SDS011;46978;50.288;28.624;2022-11-13T05:16:47;6.49;;;2.89;;
60336;SDS011;46978;50.288;28.624;2022-11-13T05:17:48;6.40;;;2.59;;
60336;SDS011;46978;50.288;28.624;2022-11-13T05:18:51;5.62;;;2.79;;
60336;SDS011;46978;50.288;28.624;2022-11-13T05:19:52;5.15;;;2.43;;
60336;SDS011;46978;50.288;28.624;2022-11-13T05:20:54;5.36;;;2.60;;
60336;SDS011;46978;50.288;28.624;2022-11-13T05:21:56;6.93;;;3.31;;
60336;SDS011;46978;50.288;28.624;2022-11-13T05:22:58;5.88;;;2.79;;
60336;SDS011;46978;50.288;28.624;2022-11-13T05:24:00;5.47;;;2.53;;
60336;SDS011;46978;50.288;28.624;2022-11-13T05:25:01;5.51;;;1.98;;
60336;SDS011;46978;50.288;28.624;2022-11-13T05:26:05;3.97;;;2.12;;
60336;SDS011;46978;50.288;28.624;2022-11-13T05:27:08;4.69;;;2.62;;
60336;SDS011;46978;50.288;28.624;2022-11-13T05:28:10;4.89;;;2.47;;
60336;SDS011;46978;50.288;28.624;2022-11-13T05:29:12;6.51;;;3.71;;
60336;SDS011;46978;50.288;28.624;2022-11-13T05:30:14;5.85;;;2.99;;
60336;SDS011;46978;50.288;28.624;2022-11-13T05:31:17;4.42;;;2.36;;
60336;SDS011;46978;50.288;28.624;2022-11-13T05:32:19;4.24;;;2.44;;
60336;SDS011;46978;50.288;28.624;2022-11-13T05:33:21;4.47;;;2.22;;
60336;SDS011;46978;50.288;28.624;2022-11-13T05:34:22;5.09;;;2.33;;
60336;SDS011;46978;50.288;28.624;2022-11-13T05:35:24;4.55;;;2.07;;
60336;SDS011;46978;50.288;28.624;2022-11-13T05:36:26;4.66;;;2.11;;
60336;SDS011;46978;50.288;28.624;2022-11-13T05:37:28;5.61;;;2.60;;
60336;SDS011;46978;50.288;28.624;2022-11-13T05:38:30;3.93;;;1.83;;
60336;SDS011;46978;50.288;28.624;2022-11-13T05:39:32;4.33;;;2.15;;
60336;SDS011;46978;50.288;28.624;2022-11-13T05:40:34;3.85;;;2.17;;
60336;SDS011;46978;50.288;28.624;2022-11-13T05:41:36;5.27;;;2.40;;
60336;SDS011;46978;50.288;28.624;2022-11-13T05:42:38;4.87;;;2.01;;
60336;SDS011;46978;50.288;28.624;2022-11-13T05:43:40;5.20;;;2.46;;
60336;SDS011;46978;50.288;28.624;2022-11-13T05:44:42;5.42;;;2.19;;
60336;SDS011;46978;50.288;28.624;2022-11-13T05:45:43;4.99;;;2.50;;
60336;SDS011;46978;50.288;28.624;2022-11-13T05:46:50;4.69;;;2.37;;
60336;SDS011;46978;50.288;28.624;2022-11-13T05:48:17;3.73;;;1.95;;
60336;SDS011;46978;50.288;28.624;2022-11-13T05:49:19;4.49;;;2.01;;
60336;SDS011;46978;50.288;28.624;2022-11-13T05:50:20;3.91;;;1.90;;
60336;SDS011;46978;50.288;28.624;2022-11-13T05:51:24;3.19;;;1.73;;
60336;SDS011;46978;50.288;28.624;2022-11-13T05:52:27;3.71;;;1.74;;
60336;SDS011;46978;50.288;28.624;2022-11-13T05:53:29;3.65;;;1.87;;
60336;SDS011;46978;50.288;28.624;2022-11-13T05:54:31;4.57;;;2.07;;
60336;SDS011;46978;50.288;28.624;2022-11-13T05:55:32;2.93;;;1.65;;
60336;SDS011;46978;50.288;28.624;2022-11-13T05:56:35;3.41;;;1.70;;
60336;SDS011;46978;50.288;28.624;2022-11-13T05:57:37;3.00;;;1.61;;
60336;SDS011;46978;50.288;28.624;2022-11-13T05:58:39;4.54;;;1.77;;
60336;SDS011;46978;50.288;28.624;2022-11-13T05:59:42;4.15;;;2.22;;
60336;SDS011;46978;50.288;28.624;2022-11-13T06:00:44;3.51;;;1.87;;
60336;SDS011;46978;50.288;28.624;2022-11-13T06:01:46;4.45;;;1.96;;
60336;SDS011;46978;50.288;28.624;2022-11-13T06:02:47;3.95;;;2.08;;
60336;SDS011;46978;50.288;28.624;2022-11-13T06:03:49;4.21;;;2.06;;
60336;SDS011;46978;50.288;28.624;2022-11-13T06:04:52;3.64;;;1.65;;
60336;SDS011;46978;50.288;28.624;2022-11-13T06:05:54;4.75;;;1.85;;
60336;SDS011;46978;50.288;28.624;2022-11-13T06:06:55;3.82;;;1.74;;
60336;SDS011;46978;50.288;28.624;2022-11-13T06:07:58;4.47;;;2.11;;
60336;SDS011;46978;50.288;28.624;2022-11-13T06:09:02;3.39;;;1.93;;
60336;SDS011;46978;50.288;28.624;2022-11-13T06:10:05;3.25;;;1.74;;
60336;SDS011;46978;50.288;28.624;2022-11-13T06:11:09;4.47;;;2.15;;
60336;SDS011;46978;50.288;28.624;2022-11-13T06:12:12;3.26;;;1.82;;
60336;SDS011;46978;50.288;28.624;2022-11-13T06:13:13;3.69;;;1.82;;
60336;SDS011;46978;50.288;28.624;2022-11-13T06:14:15;3.99;;;1.78;;
60336;SDS011;46978;50.288;28.624;2022-11-13T06:15:17;3.91;;;1.69;;
60336;SDS011;46978;50.288;28.624;2022-11-13T06:16:20;4.29;;;2.13;;